»·PEaware :: AAY979 KELP-KSAT

AAY979 :: KELP-KSAT

FLIGHT INFORMATION

Flight Status: Arrived
Operator:
Allegiant Air
More flights by this operator :: More flights under this callsign
Pilot: Anonymous A. (29301)
Aircraft: AIRBUS A320
(A320)
More flights by this aircraft type
Origin: KELP El Paso Intl
United States
Destination: KSAT San Antonio Intl
United States
More flights between these airports :: More routes between these airports
Route: NEVUE3 FST CSI2
File this flight plan on PilotEdge
Remarks:
Altitude:
(Current/Filed)
37,000ft
Speed:
(Current/Filed)
260kts
Departed: 03-May-20 12:40 PM
Arrived: 03-May-20 01:49 PM
Distance/Time
Traveled:
430nm/1:09
Distance/Time
To Go:
Arrived

Flight Plot

Page will automatically refresh every two minutes.

Flight plan parsing failed; only flown route is shown


Map Options




Map Legend


Flown Route
Filed Route
Departure Airport
Arrival Airport
Navaid (VOR, NDB)
Fix

Horizontal Profiles

Position Reports

Time Latitude Longitude Heading Altitude Ground
Speed
03-May-20 12:25 31.800599 -106.394212 173 3926ft 0kts
03-May-20 12:26 31.800599 -106.394212 173 3926ft 0kts
03-May-20 12:27 31.800599 -106.394212 173 3926ft 0kts
03-May-20 12:28 31.800599 -106.394212 173 3926ft 0kts
03-May-20 12:29 31.800629 -106.394220 193 3926ft 0kts
03-May-20 12:30 31.801116 -106.394383 139 3926ft 2kts
03-May-20 12:31 31.801405 -106.394979 98 3926ft 1kts
03-May-20 12:32 31.801405 -106.394985 98 3926ft 0kts
03-May-20 12:33 31.801393 -106.394862 95 3926ft 6kts
03-May-20 12:34 31.799873 -106.390174 92 3930ft 13kts
03-May-20 12:35 31.799907 -106.384570 90 3938ft 15kts
03-May-20 12:36 31.799929 -106.379739 91 3943ft 17kts
03-May-20 12:38 31.799617 -106.372880 93 3952ft 24kts
03-May-20 12:39 31.799168 -106.363733 93 3957ft 31kts
03-May-20 12:40 31.800731 -106.362049 273 3955ft 50kts
03-May-20 12:41 31.798831 -106.408056 228 5227ft 183kts
03-May-20 12:42 31.755377 -106.380953 125 7304ft 257kts
03-May-20 12:43 31.712440 -106.298419 117 9451ft 314kts
03-May-20 12:44 31.673316 -106.203319 120 11918ft 348kts
03-May-20 12:45 31.625452 -106.101851 120 14594ft 363kts
03-May-20 12:46 31.574553 -105.997210 125 17102ft 375kts
03-May-20 12:47 31.514971 -105.894558 125 19412ft 387kts
03-May-20 12:48 31.466697 -105.781316 102 21506ft 402kts
03-May-20 12:49 31.444556 -105.651249 102 23482ft 413kts
03-May-20 12:50 31.421465 -105.517852 102 25308ft 423kts
03-May-20 12:51 31.397624 -105.381199 101 26972ft 433kts
03-May-20 12:51 31.377724 -105.267828 102 28202ft 441kts
03-May-20 12:52 31.352662 -105.125915 102 29575ft 449kts
03-May-20 12:54 31.322664 -104.957320 102 30933ft 460kts
03-May-20 12:55 31.296142 -104.809356 102 32000ft 469kts
03-May-20 12:55 31.273592 -104.684341 102 32839ft 474kts
03-May-20 12:56 31.246189 -104.533376 102 33950ft 474kts
03-May-20 12:57 31.218726 -104.383136 102 35107ft 470kts
03-May-20 12:59 31.186928 -104.210511 103 36304ft 467kts
03-May-20 12:59 31.164087 -104.087279 103 36989ft 467kts
03-May-20 13:00 31.136512 -103.939553 103 37020ft 466kts
03-May-20 13:01 31.108678 -103.791406 103 37015ft 466kts
03-May-20 13:02 31.080781 -103.643891 103 37016ft 467kts
03-May-20 13:03 31.052679 -103.496263 103 37018ft 467kts
03-May-20 13:04 31.024622 -103.349824 103 37035ft 467kts
03-May-20 13:05 30.996037 -103.201608 103 37061ft 467kts
03-May-20 13:06 30.967309 -103.053615 103 37049ft 470kts
03-May-20 13:07 30.934208 -102.906052 107 37045ft 473kts
03-May-20 13:08 30.896937 -102.761523 107 37074ft 476kts
03-May-20 13:09 30.858701 -102.614004 107 37084ft 477kts
03-May-20 13:10 30.820267 -102.466487 107 37080ft 477kts
03-May-20 13:11 30.781983 -102.320302 108 37067ft 476kts
03-May-20 13:12 30.743305 -102.173364 108 37048ft 475kts
03-May-20 13:13 30.704527 -102.026788 108 37029ft 474kts
03-May-20 13:14 30.665556 -101.880233 108 37027ft 474kts
03-May-20 13:15 30.626428 -101.733816 108 37034ft 474kts
03-May-20 13:16 30.586999 -101.587014 108 37004ft 476kts
03-May-20 13:17 30.547434 -101.440438 108 37019ft 477kts
03-May-20 13:18 30.507986 -101.294993 109 36281ft 474kts
03-May-20 13:19 30.468251 -101.149031 109 35330ft 477kts
03-May-20 13:20 30.428016 -101.002205 109 34371ft 478kts
03-May-20 13:21 30.387687 -100.856103 109 33392ft 473kts
03-May-20 13:22 30.347978 -100.712397 109 32410ft 465kts
03-May-20 13:23 30.308797 -100.571350 109 31423ft 456kts
03-May-20 13:24 30.270183 -100.433025 109 30446ft 448kts
03-May-20 13:25 30.233189 -100.301090 110 29516ft 438kts
03-May-20 13:26 30.196069 -100.169261 110 27793ft 427kts
03-May-20 13:27 30.159480 -100.039879 110 25693ft 418kts
03-May-20 13:28 30.123677 -99.913817 110 23608ft 408kts
03-May-20 13:29 30.088812 -99.791552 110 21566ft 396kts
03-May-20 13:30 30.054755 -99.672594 110 19529ft 384kts
03-May-20 13:31 30.021716 -99.557624 110 17562ft 370kts
03-May-20 13:32 29.989849 -99.447136 109 15693ft 356kts
03-May-20 13:33 29.959490 -99.342243 109 13914ft 342kts
03-May-20 13:34 29.930752 -99.243279 109 12240ft 330kts
03-May-20 13:35 29.897541 -99.147807 114 10592ft 318kts
03-May-20 13:36 29.864049 -99.057981 114 9493ft 293kts
03-May-20 13:37 29.832487 -98.973100 113 8124ft 284kts
03-May-20 13:38 29.803178 -98.889984 114 6807ft 276kts
03-May-20 13:39 29.773346 -98.809471 114 5533ft 268kts
03-May-20 13:40 29.739172 -98.738728 131 4354ft 234kts
03-May-20 13:41 29.698955 -98.686315 133 3377ft 204kts
03-May-20 13:42 29.668253 -98.646825 133 3227ft 140kts
03-May-20 13:43 29.642625 -98.614009 133 3157ft 138kts
03-May-20 13:44 29.616858 -98.581236 132 3046ft 138kts
03-May-20 13:45 29.591716 -98.548487 133 2253ft 134kts
03-May-20 13:46 29.566799 -98.516440 133 1554ft 133kts
03-May-20 13:47 29.542194 -98.484805 133 853ft 132kts
03-May-20 13:48 29.530764 -98.470581 186 818ft 13kts
03-May-20 13:49 29.527876 -98.471188 220 818ft 10kts
03-May-20 13:50 29.542787 -98.485561 133 870ft 132kts
03-May-20 13:51 29.538154 -98.479625 132 819ft 116kts
03-May-20 13:52 29.540597 -98.482753 133 826ft 129kts
03-May-20 13:53 29.550607 -98.495631 133 1110ft 132kts
03-May-20 13:54 29.534419 -98.474826 132 818ft 63kts
03-May-20 13:55 29.529521 -98.471428 162 818ft 13kts
03-May-20 13:56 29.527067 -98.471195 148 818ft 2kts
03-May-20 13:57 29.527045 -98.471180 148 818ft 0kts
03-May-20 13:58 29.527045 -98.471180 148 818ft 0kts
03-May-20 13:59 29.527045 -98.471180 148 818ft 0kts
03-May-20 14:00 29.527045 -98.471180 148 818ft 0kts
03-May-20 14:01 29.527045 -98.471180 148 818ft 0kts
03-May-20 14:02 29.527045 -98.471180 148 818ft 0kts

Navigation Log

Ident Type
Flight plan parsing failed, navigation log unavailable